createdAt,value
2019-05-23T00:01:01.683Z,12.37
2019-05-23T00:03:38.840Z,10.10
2019-05-23T00:06:11.218Z,14.63
2019-05-23T00:08:41.156Z,11.53
2019-05-23T00:11:32.221Z,11.10
2019-05-23T00:14:06.926Z,11.50
2019-05-23T00:16:36.599Z,11.73
2019-05-23T00:19:06.535Z,11.37
2019-05-23T00:21:37.303Z,11.70
2019-05-23T00:24:08.219Z,15.40
2019-05-23T00:26:39.386Z,12.73
2019-05-23T00:29:10.908Z,11.60
2019-05-23T00:31:58.520Z,11.63
2019-05-23T00:34:29.282Z,11.20
2019-05-23T00:36:59.642Z,11.67
2019-05-23T00:39:29.601Z,14.53
2019-05-23T00:41:58.691Z,11.20
2019-05-23T00:44:27.814Z,10.67
2019-05-23T00:46:56.886Z,15.10
2019-05-23T00:49:28.331Z,15.90
2019-05-23T00:51:57.404Z,10.93
2019-05-23T00:54:26.945Z,12.90
2019-05-23T00:56:57.018Z,11.07
2019-05-23T00:59:27.710Z,13.60
2019-05-23T01:01:57.820Z,11.27
2019-05-23T01:04:27.897Z,10.67
2019-05-23T01:06:57.613Z,16.07
2019-05-23T01:09:27.432Z,12.57
2019-05-23T01:11:56.758Z,13.53
2019-05-23T01:14:26.240Z,12.17
2019-05-23T01:16:55.441Z,12.73
2019-05-23T01:19:25.221Z,11.27
2019-05-23T01:22:01.306Z,10.73
2019-05-23T01:24:37.266Z,12.37
2019-05-23T01:27:07.156Z,11.77
2019-05-23T01:29:49.515Z,13.73
2019-05-23T01:32:30.509Z,11.27
2019-05-23T01:34:59.947Z,11.47
2019-05-23T01:37:28.991Z,11.43
2019-05-23T01:39:58.190Z,12.20
2019-05-23T01:42:28.228Z,15.03
2019-05-23T01:44:58.434Z,13.27
2019-05-23T01:47:28.234Z,13.97
2019-05-23T01:49:57.931Z,13.13
2019-05-23T01:52:27.574Z,12.87
2019-05-23T01:54:56.933Z,10.70
2019-05-23T01:57:26.369Z,12.40
2019-05-23T02:00:08.818Z,11.97
2019-05-23T02:02:29.189Z,13.50
2019-05-23T02:04:58.413Z,16.93
2019-05-23T02:07:29.249Z,13.63
2019-05-23T02:09:58.498Z,13.20
2019-05-23T02:12:27.446Z,15.27
2019-05-23T02:14:57.274Z,13.77
2019-05-23T02:17:26.247Z,13.43
2019-05-23T02:19:56.127Z,14.10
2019-05-23T02:22:25.038Z,16.73
2019-05-23T02:24:54.538Z,13.60
2019-05-23T02:27:25.177Z,14.93
2019-05-23T02:29:54.050Z,15.23
2019-05-23T02:32:23.497Z,14.83
2019-05-23T02:34:53.049Z,12.63
2019-05-23T02:37:41.444Z,16.27
2019-05-23T02:40:18.362Z,18.40
2019-05-23T02:42:57.506Z,12.43
2019-05-23T02:45:33.946Z,13.57
2019-05-23T02:48:05.191Z,14.23
2019-05-23T02:50:41.742Z,15.23
2019-05-23T02:53:14.339Z,16.13
2019-05-23T02:55:43.604Z,13.53
2019-05-23T02:58:31.486Z,13.20
2019-05-23T03:01:48.859Z,15.03
2019-05-23T03:04:21.083Z,14.67
2019-05-23T03:06:51.691Z,14.73
2019-05-23T03:09:23.400Z,17.00
2019-05-23T03:11:57.114Z,14.63
2019-05-23T03:14:27.794Z,14.17
2019-05-23T03:16:59.752Z,15.50
2019-05-23T03:19:38.998Z,13.50
2019-05-23T03:22:39.850Z,14.53
2019-05-23T03:25:22.749Z,15.43
2019-05-23T03:27:54.155Z,14.63
2019-05-23T03:30:27.677Z,16.57
2019-05-23T03:33:01.296Z,16.20
2019-05-23T03:35:34.655Z,13.93
2019-05-23T03:38:04.016Z,14.13
2019-05-23T03:40:33.487Z,16.83
2019-05-23T03:43:02.425Z,13.63
2019-05-23T03:45:33.188Z,17.67
2019-05-23T03:48:02.992Z,16.57
2019-05-23T03:50:32.618Z,16.93
2019-05-23T03:53:02.076Z,15.70
2019-05-23T03:55:32.786Z,13.77
2019-05-23T03:58:02.715Z,15.43
2019-05-23T04:00:37.242Z,14.17
2019-05-23T04:03:07.599Z,15.73
2019-05-23T04:05:37.378Z,16.93
2019-05-23T04:08:07.640Z,15.13
2019-05-23T04:10:37.276Z,15.67
2019-05-23T04:13:06.981Z,16.03
2019-05-23T04:15:36.467Z,19.50
2019-05-23T04:18:06.168Z,15.27
2019-05-23T04:20:35.167Z,17.73
2019-05-23T04:23:05.655Z,16.97
2019-05-23T04:25:35.409Z,16.63
2019-05-23T04:28:05.215Z,18.50
2019-05-23T04:30:34.566Z,16.80
2019-05-23T04:33:03.973Z,17.93
2019-05-23T04:35:33.069Z,15.13
2019-05-23T04:38:02.360Z,17.93
2019-05-23T04:40:31.829Z,15.60
2019-05-23T04:43:01.239Z,16.83
2019-05-23T04:45:31.827Z,17.13
2019-05-23T04:48:01.148Z,18.10
2019-05-23T04:50:30.720Z,17.63
2019-05-23T04:53:00.282Z,17.93
2019-05-23T04:55:29.778Z,16.30
2019-05-23T04:58:03.686Z,16.23
2019-05-23T05:00:31.103Z,14.60
2019-05-23T05:03:00.486Z,16.70
2019-05-23T05:05:30.078Z,14.83
2019-05-23T05:07:59.070Z,17.80
2019-05-23T05:10:29.084Z,18.83
2019-05-23T05:12:58.326Z,18.83
2019-05-23T05:15:27.570Z,17.33
2019-05-23T05:17:57.122Z,17.63
2019-05-23T05:20:26.597Z,16.83
2019-05-23T05:22:55.920Z,16.93
2019-05-23T05:25:25.057Z,16.27
2019-05-23T05:27:54.027Z,17.27
2019-05-23T05:30:23.267Z,16.23
2019-05-23T05:32:52.546Z,17.77
2019-05-23T05:35:21.616Z,15.80
2019-05-23T05:37:50.754Z,17.37
2019-05-23T05:40:19.931Z,16.57
2019-05-23T05:42:49.215Z,15.27
2019-05-23T05:45:20.320Z,17.43
2019-05-23T05:47:49.657Z,17.13
2019-05-23T05:50:19.582Z,16.03
2019-05-23T05:52:48.524Z,15.40
2019-05-23T05:55:17.487Z,18.83
2019-05-23T05:57:46.514Z,15.70
2019-05-23T06:00:48.648Z,17.73
2019-05-23T06:03:18.219Z,16.07
2019-05-23T06:06:05.583Z,16.40
2019-05-23T06:08:37.187Z,17.13
2019-05-23T06:11:07.060Z,16.30
2019-05-23T06:13:36.196Z,16.10
2019-05-23T06:16:05.283Z,21.37
2019-05-23T06:18:34.751Z,16.70
2019-05-23T06:21:05.185Z,19.87
2019-05-23T06:23:34.666Z,18.53
2019-05-23T06:26:03.645Z,15.77
2019-05-23T06:28:33.038Z,16.37
2019-05-23T06:31:02.464Z,19.13
2019-05-23T06:33:32.115Z,18.67
2019-05-23T06:36:01.722Z,18.40
2019-05-23T06:38:31.308Z,15.77
2019-05-23T06:41:01.660Z,17.17
2019-05-23T06:43:31.730Z,16.27
2019-05-23T06:46:01.514Z,16.50
2019-05-23T06:48:31.114Z,20.10
2019-05-23T06:51:00.234Z,17.67
2019-05-23T06:53:29.439Z,17.23
2019-05-23T06:55:58.904Z,14.97
2019-05-23T06:58:28.275Z,19.03
2019-05-23T07:00:57.745Z,18.60
2019-05-23T07:03:41.168Z,16.90
2019-05-23T07:05:58.813Z,17.93
2019-05-23T07:08:30.189Z,19.20
2019-05-23T07:10:59.680Z,15.98
2019-05-23T07:13:29.698Z,16.02
2019-05-23T07:15:58.709Z,15.83
2019-05-23T07:18:28.406Z,13.53
2019-05-23T07:20:57.562Z,14.87
2019-05-23T07:23:27.029Z,13.80
2019-05-23T07:25:56.620Z,13.60
2019-05-23T07:28:25.796Z,16.12
2019-05-23T07:30:56.279Z,13.40
2019-05-23T07:33:25.884Z,15.80
2019-05-23T07:35:55.053Z,14.03
2019-05-23T07:38:24.301Z,13.62
2019-05-23T07:40:54.761Z,17.27
2019-05-23T07:43:24.932Z,16.70
2019-05-23T07:45:56.551Z,12.50
2019-05-23T07:48:26.353Z,12.90
2019-05-23T07:50:56.239Z,13.30
2019-05-23T07:53:43.983Z,15.08
2019-05-23T07:56:15.315Z,13.62
2019-05-23T07:58:44.405Z,13.93
2019-05-23T08:01:15.249Z,13.00
2019-05-23T08:03:45.272Z,12.93
2019-05-23T08:06:14.595Z,16.20
2019-05-23T08:08:43.971Z,13.25
2019-05-23T08:11:13.337Z,18.65
2019-05-23T08:13:42.885Z,15.23
2019-05-23T08:16:13.096Z,11.65
2019-05-23T08:18:42.407Z,13.50
2019-05-23T08:21:11.626Z,15.98
2019-05-23T08:23:40.870Z,14.30
2019-05-23T08:26:10.864Z,15.83
2019-05-23T08:29:00.475Z,14.58
2019-05-23T08:31:11.459Z,19.10
2019-05-23T08:33:40.515Z,16.82
2019-05-23T08:36:11.054Z,17.23
2019-05-23T08:38:41.335Z,14.03
2019-05-23T08:41:11.884Z,13.53
2019-05-23T08:43:41.333Z,15.65
2019-05-23T08:46:11.740Z,17.27
2019-05-23T08:48:40.966Z,14.95
2019-05-23T08:51:10.685Z,15.98
2019-05-23T08:53:40.675Z,23.05
2019-05-23T08:56:18.439Z,12.95
2019-05-23T08:58:41.071Z,14.45
2019-05-23T09:01:11.457Z,15.23
2019-05-23T09:03:40.877Z,15.95
2019-05-23T09:06:10.323Z,13.10
2019-05-23T09:08:39.759Z,14.93
2019-05-23T09:11:09.341Z,10.90
2019-05-23T09:13:38.585Z,9.83
2019-05-23T09:16:09.769Z,11.65
2019-05-23T09:18:39.022Z,11.97
2019-05-23T09:21:08.313Z,15.53
2019-05-23T09:23:37.626Z,11.05
2019-05-23T09:26:06.847Z,11.43
2019-05-23T09:28:36.365Z,11.88
2019-05-23T09:31:05.765Z,14.70
2019-05-23T09:33:35.192Z,13.53
2019-05-23T09:36:05.049Z,13.15
2019-05-23T09:38:34.665Z,22.30
2019-05-23T09:41:04.287Z,10.85
2019-05-23T09:43:33.364Z,12.58
2019-05-23T09:46:02.669Z,12.70
2019-05-23T09:48:31.985Z,11.88
2019-05-23T09:51:01.280Z,14.45
2019-05-23T09:53:30.986Z,12.07
2019-05-23T09:56:00.272Z,13.35
2019-05-23T09:58:29.623Z,10.80
2019-05-23T10:00:58.852Z,10.78
2019-05-23T10:03:28.088Z,12.30
2019-05-23T10:05:57.356Z,14.40
2019-05-23T10:08:26.962Z,9.85
2019-05-23T10:10:56.605Z,11.20
2019-05-23T10:13:38.484Z,11.15
2019-05-23T10:16:05.794Z,8.93
2019-05-23T10:18:35.188Z,17.80
2019-05-23T10:21:04.678Z,9.65
2019-05-23T10:23:34.321Z,9.28
2019-05-23T10:26:04.097Z,9.75
2019-05-23T10:28:33.409Z,10.18
2019-05-23T10:31:04.302Z,11.00
2019-05-23T10:33:33.678Z,11.12
2019-05-23T10:36:02.823Z,10.18
2019-05-23T10:38:32.049Z,8.43
2019-05-23T10:41:01.537Z,7.90
2019-05-23T10:43:30.847Z,9.18
2019-05-23T10:46:00.330Z,8.25
2019-05-23T10:48:30.113Z,10.15
2019-05-23T10:50:59.402Z,11.55
2019-05-23T10:53:28.745Z,10.13
2019-05-23T10:55:57.982Z,8.73
2019-05-23T10:58:28.009Z,8.00
2019-05-23T11:00:57.983Z,12.45
2019-05-23T11:03:27.605Z,7.85
2019-05-23T11:05:57.081Z,7.45
2019-05-23T11:08:29.481Z,8.95
2019-05-23T11:10:57.545Z,10.98
2019-05-23T11:13:27.009Z,8.93
2019-05-23T11:15:56.465Z,14.90
2019-05-23T11:18:25.905Z,8.38
2019-05-23T11:20:55.182Z,7.47
2019-05-23T11:23:29.407Z,11.45
2019-05-23T11:26:01.139Z,7.53
2019-05-23T11:28:31.665Z,7.35
2019-05-23T11:31:01.706Z,6.97
2019-05-23T11:33:30.933Z,7.62
2019-05-23T11:36:00.455Z,7.65
2019-05-23T11:38:30.211Z,7.15
2019-05-23T11:40:59.430Z,6.72
2019-05-23T11:43:28.689Z,8.20
2019-05-23T11:46:02.213Z,7.95
2019-05-23T11:48:32.109Z,8.03
2019-05-23T11:51:01.396Z,7.58
2019-05-23T11:53:31.606Z,5.60
2019-05-23T11:56:00.988Z,5.28
2019-05-23T11:58:32.620Z,4.55
2019-05-23T12:01:42.244Z,5.75
2019-05-23T12:04:22.262Z,5.42
2019-05-23T12:06:56.626Z,6.12
2019-05-23T12:09:26.430Z,6.42
2019-05-23T12:11:55.600Z,6.05
2019-05-23T12:14:24.883Z,5.65
2019-05-23T12:16:55.707Z,3.62
2019-05-23T12:19:25.440Z,6.00
2019-05-23T12:21:55.080Z,3.05
2019-05-23T12:24:24.409Z,4.83
2019-05-23T12:26:53.903Z,4.30
2019-05-23T12:29:23.430Z,3.27
2019-05-23T12:31:52.829Z,8.70
2019-05-23T12:34:21.988Z,4.28
2019-05-23T12:36:51.316Z,6.53
2019-05-23T12:39:20.608Z,3.77
2019-05-23T12:41:49.577Z,5.12
2019-05-23T12:44:18.688Z,9.95
2019-05-23T12:46:47.632Z,6.97
2019-05-23T12:49:24.778Z,3.35
2019-05-23T12:51:55.040Z,4.83
2019-05-23T12:54:24.765Z,5.45
2019-05-23T12:56:53.619Z,3.85
2019-05-23T12:59:22.810Z,5.95
2019-05-23T13:01:53.480Z,6.30
2019-05-23T13:04:22.764Z,7.12
2019-05-23T13:06:52.166Z,5.95
2019-05-23T13:09:21.234Z,4.95
2019-05-23T13:11:50.262Z,3.87
2019-05-23T13:14:19.706Z,2.98
2019-05-23T13:16:48.782Z,2.05
2019-05-23T13:19:18.433Z,3.67
2019-05-23T13:21:47.491Z,3.10
2019-05-23T13:24:16.446Z,2.72
2019-05-23T13:26:45.480Z,3.80
2019-05-23T13:29:14.510Z,3.12
2019-05-23T13:31:43.551Z,3.58
2019-05-23T13:34:12.554Z,15.05
2019-05-23T13:36:41.380Z,7.55
2019-05-23T13:39:11.598Z,5.08
2019-05-23T13:41:40.503Z,3.95
2019-05-23T13:44:09.545Z,3.15
2019-05-23T13:46:38.543Z,3.60
2019-05-23T13:49:07.736Z,4.45
2019-05-23T13:51:37.542Z,5.17
2019-05-23T13:54:06.455Z,5.80
2019-05-23T13:56:35.394Z,3.45
2019-05-23T13:59:04.502Z,2.40
2019-05-23T14:01:33.431Z,2.90
2019-05-23T14:04:02.473Z,3.58
2019-05-23T14:06:31.494Z,2.70
2019-05-23T14:09:00.386Z,4.35
2019-05-23T14:11:29.646Z,2.65
2019-05-23T14:14:01.483Z,6.60
2019-05-23T14:16:31.179Z,2.98
2019-05-23T14:19:00.226Z,4.80
2019-05-23T14:21:35.031Z,4.67
2019-05-23T14:24:04.351Z,2.65
2019-05-23T14:26:39.333Z,4.08
2019-05-23T14:29:08.221Z,4.78
2019-05-23T14:31:43.952Z,4.40
2019-05-23T14:34:15.378Z,2.72
2019-05-23T14:37:02.609Z,3.25
2019-05-23T14:39:42.500Z,3.47
2019-05-23T14:42:28.631Z,4.85
2019-05-23T14:44:57.761Z,3.20
2019-05-23T14:47:41.396Z,2.75
2019-05-23T14:50:34.013Z,3.33
2019-05-23T14:53:03.361Z,3.02
2019-05-23T14:55:32.926Z,5.42
2019-05-23T14:58:01.766Z,2.70
2019-05-23T15:00:31.184Z,3.62
2019-05-23T15:03:00.118Z,2.67
2019-05-23T15:05:29.820Z,3.72
2019-05-23T15:07:58.779Z,2.27
2019-05-23T15:10:28.011Z,5.08
2019-05-23T15:12:56.990Z,2.27
2019-05-23T15:15:26.471Z,2.40
2019-05-23T15:17:55.413Z,4.67
2019-05-23T15:20:24.467Z,4.40
2019-05-23T15:22:53.454Z,4.33
2019-05-23T15:25:22.446Z,3.67
2019-05-23T15:27:51.506Z,3.15
2019-05-23T15:30:21.186Z,4.50
2019-05-23T15:32:50.192Z,2.60
2019-05-23T15:35:19.330Z,2.17
2019-05-23T15:37:48.294Z,3.47
2019-05-23T15:40:18.570Z,4.42
2019-05-23T15:42:47.591Z,6.62
2019-05-23T15:45:16.609Z,3.40
2019-05-23T15:47:45.910Z,2.77
2019-05-23T15:50:16.900Z,3.75
2019-05-23T15:52:54.510Z,3.08
2019-05-23T15:55:54.515Z,3.37
2019-05-23T15:58:35.440Z,3.52
2019-05-23T16:01:26.285Z,4.20
2019-05-23T16:04:01.458Z,3.75
2019-05-23T16:06:32.784Z,3.15
2019-05-23T16:09:02.304Z,3.22
2019-05-23T16:11:31.250Z,4.15
2019-05-23T16:14:00.284Z,4.67
2019-05-23T16:16:29.271Z,2.65
2019-05-23T16:18:58.397Z,5.95
2019-05-23T16:21:27.391Z,2.80
2019-05-23T16:23:56.351Z,2.92
2019-05-23T16:26:25.586Z,4.87
2019-05-23T16:28:54.622Z,3.08
2019-05-23T16:31:23.524Z,3.55
2019-05-23T16:33:52.578Z,2.52
2019-05-23T16:36:21.591Z,6.78
2019-05-23T16:38:50.544Z,3.25
2019-05-23T16:41:19.900Z,2.80
2019-05-23T16:43:48.880Z,3.27
2019-05-23T16:46:18.350Z,5.62
2019-05-23T16:48:47.753Z,3.62
2019-05-23T16:51:16.725Z,2.95
2019-05-23T16:53:46.010Z,3.45
2019-05-23T16:56:19.977Z,2.25
2019-05-23T16:59:07.638Z,3.02
2019-05-23T17:02:06.372Z,2.83
2019-05-23T17:04:39.814Z,3.40
2019-05-23T17:07:26.560Z,3.83
2019-05-23T17:10:09.361Z,5.87
2019-05-23T17:12:59.783Z,2.10
2019-05-23T17:15:53.986Z,2.77
2019-05-23T17:18:33.081Z,4.55
2019-05-23T17:21:17.604Z,5.67
2019-05-23T17:23:54.734Z,2.45
2019-05-23T17:26:52.362Z,3.02
2019-05-23T17:29:30.032Z,7.67
2019-05-23T17:32:03.538Z,2.40
2019-05-23T17:34:32.639Z,3.72
2019-05-23T17:37:01.871Z,2.95
2019-05-23T17:39:32.182Z,5.90
2019-05-23T17:42:01.180Z,7.55
2019-05-23T17:44:30.154Z,5.25
2019-05-23T17:46:59.303Z,8.70
2019-05-23T17:49:28.791Z,4.55
2019-05-23T17:51:57.701Z,5.55
2019-05-23T17:54:26.895Z,1.77
2019-05-23T17:56:55.957Z,3.35
2019-05-23T17:59:24.776Z,2.67
2019-05-23T18:01:54.303Z,2.90
2019-05-23T18:04:23.352Z,3.00
2019-05-23T18:06:52.893Z,3.80
2019-05-23T18:09:21.858Z,2.87
2019-05-23T18:11:51.546Z,4.45
2019-05-23T18:14:21.080Z,3.45
2019-05-23T18:16:50.247Z,3.08
2019-05-23T18:19:19.536Z,5.65
2019-05-23T18:21:48.691Z,1.75
2019-05-23T18:24:18.403Z,2.92
2019-05-23T18:26:47.401Z,5.42
2019-05-23T18:29:17.442Z,2.33
2019-05-23T18:31:46.732Z,4.15
2019-05-23T18:34:16.573Z,1.92
2019-05-23T18:36:46.168Z,2.05
2019-05-23T18:39:16.745Z,3.72
2019-05-23T18:42:06.570Z,2.90
2019-05-23T18:44:36.256Z,2.47
2019-05-23T18:47:09.923Z,5.97
2019-05-23T18:49:40.217Z,4.10
2019-05-23T18:52:10.002Z,3.25
2019-05-23T18:54:39.080Z,2.35
2019-05-23T18:57:08.900Z,1.72
2019-05-23T18:59:37.815Z,1.55
2019-05-23T19:02:07.273Z,8.05
2019-05-23T19:04:36.625Z,5.33
2019-05-23T19:07:07.314Z,2.40
2019-05-23T19:09:36.733Z,3.92
2019-05-23T19:12:06.326Z,1.72
2019-05-23T19:14:35.476Z,2.12
2019-05-23T19:17:05.255Z,1.60
2019-05-23T19:19:34.681Z,3.62
2019-05-23T19:22:04.932Z,1.85
2019-05-23T19:24:34.316Z,2.25
2019-05-23T19:27:03.508Z,4.80
2019-05-23T19:29:33.677Z,3.65
2019-05-23T19:32:04.274Z,6.70
2019-05-23T19:34:33.193Z,3.75
2019-05-23T19:37:03.440Z,6.25
2019-05-23T19:39:33.124Z,5.22
2019-05-23T19:42:02.498Z,9.85
2019-05-23T19:44:31.499Z,7.72
2019-05-23T19:47:00.530Z,7.30
2019-05-23T19:49:29.531Z,2.70
2019-05-23T19:51:59.767Z,6.93
2019-05-23T19:54:29.034Z,3.50
2019-05-23T19:56:58.054Z,4.13
2019-05-23T19:59:26.943Z,3.10
2019-05-23T20:02:27.155Z,5.03
2019-05-23T20:05:03.875Z,5.63
2019-05-23T20:07:32.799Z,3.40
2019-05-23T20:10:02.412Z,6.17
2019-05-23T20:12:32.049Z,3.87
2019-05-23T20:15:00.970Z,2.98
2019-05-23T20:17:30.052Z,3.27
2019-05-23T20:19:59.147Z,5.50
2019-05-23T20:22:28.600Z,5.03
2019-05-23T20:24:57.607Z,32.50
2019-05-23T20:27:26.923Z,10.60
2019-05-23T20:29:55.821Z,6.50
2019-05-23T20:32:24.988Z,6.85
2019-05-23T20:34:54.143Z,4.40
2019-05-23T20:37:25.011Z,2.47
2019-05-23T20:39:54.127Z,4.77
2019-05-23T20:42:23.225Z,3.77
2019-05-23T20:44:52.105Z,11.17
2019-05-23T20:47:36.176Z,10.83
2019-05-23T20:50:06.374Z,31.87
2019-05-23T20:52:38.848Z,19.90
2019-05-23T20:55:09.632Z,7.83
2019-05-23T20:57:40.068Z,5.80
2019-05-23T21:00:12.441Z,7.73
2019-05-23T21:02:44.844Z,5.87
2019-05-23T21:05:17.220Z,6.40
2019-05-23T21:07:46.542Z,7.13
2019-05-23T21:10:30.433Z,5.70
2019-05-23T21:13:00.877Z,4.33
2019-05-23T21:15:31.436Z,4.80
2019-05-23T21:18:00.796Z,6.40
2019-05-23T21:20:31.789Z,12.23
2019-05-23T21:23:03.897Z,6.93
2019-05-23T21:25:34.743Z,7.20
2019-05-23T21:28:04.838Z,5.23
2019-05-23T21:30:35.592Z,5.33
2019-05-23T21:33:05.137Z,7.20
2019-05-23T21:35:36.035Z,6.67
2019-05-23T21:38:05.980Z,4.97
2019-05-23T21:40:44.608Z,4.77
2019-05-23T21:43:16.577Z,5.30
2019-05-23T21:45:46.096Z,8.53
2019-05-23T21:48:17.372Z,4.23
2019-05-23T21:50:47.756Z,5.43
2019-05-23T21:53:17.269Z,5.53
2019-05-23T21:55:46.580Z,5.10
2019-05-23T21:58:17.449Z,5.70
2019-05-23T22:01:49.058Z,6.50
2019-05-23T22:07:35.791Z,8.07
2019-05-23T22:10:07.487Z,4.70
2019-05-23T22:12:41.042Z,6.40
2019-05-23T22:15:17.124Z,5.70
2019-05-23T22:17:47.851Z,5.23
2019-05-23T22:20:22.044Z,6.50
2019-05-23T22:22:51.391Z,4.87
2019-05-23T22:25:32.195Z,6.63
2019-05-23T22:28:06.183Z,8.37
2019-05-23T22:30:36.889Z,5.10
2019-05-23T22:33:08.081Z,5.67
2019-05-23T22:35:37.501Z,7.10
2019-05-23T22:38:07.761Z,7.60
2019-05-23T22:40:38.548Z,5.30
2019-05-23T22:43:20.700Z,5.80
2019-05-23T22:45:48.182Z,3.57
2019-05-23T22:48:17.697Z,11.93
2019-05-23T22:50:47.901Z,8.73
2019-05-23T22:53:17.383Z,6.07
2019-05-23T22:55:47.803Z,5.67
2019-05-23T22:58:18.509Z,6.17
2019-05-23T23:00:49.370Z,4.23
2019-05-23T23:03:19.076Z,5.57
2019-05-23T23:05:50.466Z,5.37
2019-05-23T23:08:22.811Z,6.23
2019-05-23T23:10:52.111Z,4.80
2019-05-23T23:16:15.655Z,7.13
2019-05-23T23:18:44.622Z,5.57
2019-05-23T23:21:13.538Z,6.47
2019-05-23T23:23:42.428Z,6.90
2019-05-23T23:26:11.426Z,7.20
2019-05-23T23:28:40.420Z,8.77
2019-05-23T23:31:09.222Z,7.00
2019-05-23T23:33:38.984Z,5.07
2019-05-23T23:36:07.961Z,5.57
2019-05-23T23:38:36.857Z,3.97
2019-05-23T23:41:05.831Z,5.50
2019-05-23T23:43:34.840Z,5.53
2019-05-23T23:46:21.514Z,8.70
2019-05-23T23:49:08.456Z,6.30
2019-05-23T23:51:55.557Z,5.80
2019-05-23T23:54:42.387Z,7.00
2019-05-23T23:57:29.162Z,6.53
